sensor_id;sensor_type;location;lat;lon;timestamp;P1;durP1;ratioP1;P2;durP2;ratioP2
78648;SDS011;67962;47.310;9.642;2024-03-02T00:00:20;20.70;;;12.23;;
78648;SDS011;67962;47.310;9.642;2024-03-02T00:02:49;16.45;;;10.70;;
78648;SDS011;67962;47.310;9.642;2024-03-02T00:05:19;18.42;;;11.73;;
78648;SDS011;67962;47.310;9.642;2024-03-02T00:07:47;22.13;;;11.23;;
78648;SDS011;67962;47.310;9.642;2024-03-02T00:10:22;20.08;;;12.10;;
78648;SDS011;67962;47.310;9.642;2024-03-02T00:12:53;22.00;;;13.13;;
78648;SDS011;67962;47.310;9.642;2024-03-02T00:17:58;15.40;;;11.10;;
78648;SDS011;67962;47.310;9.642;2024-03-02T00:20:24;16.50;;;11.77;;
78648;SDS011;67962;47.310;9.642;2024-03-02T00:22:58;17.10;;;11.25;;
78648;SDS011;67962;47.310;9.642;2024-03-02T00:25:40;18.67;;;12.00;;
78648;SDS011;67962;47.310;9.642;2024-03-02T00:28:50;17.38;;;11.77;;
78648;SDS011;67962;47.310;9.642;2024-03-02T00:31:04;18.20;;;12.05;;
78648;SDS011;67962;47.310;9.642;2024-03-02T00:33:35;19.45;;;12.35;;
78648;SDS011;67962;47.310;9.642;2024-03-02T00:36:02;17.92;;;11.73;;
78648;SDS011;67962;47.310;9.642;2024-03-02T00:38:29;17.40;;;11.07;;
78648;SDS011;67962;47.310;9.642;2024-03-02T00:40:59;22.15;;;13.48;;
78648;SDS011;67962;47.310;9.642;2024-03-02T00:43:41;19.35;;;12.85;;
78648;SDS011;67962;47.310;9.642;2024-03-02T00:46:10;19.15;;;12.25;;
78648;SDS011;67962;47.310;9.642;2024-03-02T00:51:23;26.83;;;13.85;;
78648;SDS011;67962;47.310;9.642;2024-03-02T00:53:51;20.73;;;11.95;;
78648;SDS011;67962;47.310;9.642;2024-03-02T00:56:20;22.90;;;13.27;;
78648;SDS011;67962;47.310;9.642;2024-03-02T00:58:47;20.20;;;12.93;;
78648;SDS011;67962;47.310;9.642;2024-03-02T01:01:12;20.58;;;12.60;;
78648;SDS011;67962;47.310;9.642;2024-03-02T01:03:38;18.63;;;12.15;;
78648;SDS011;67962;47.310;9.642;2024-03-02T01:06:04;17.52;;;11.65;;
78648;SDS011;67962;47.310;9.642;2024-03-02T01:08:30;17.67;;;11.90;;
78648;SDS011;67962;47.310;9.642;2024-03-02T01:10:55;17.92;;;12.10;;
78648;SDS011;67962;47.310;9.642;2024-03-02T01:13:22;18.58;;;11.68;;
78648;SDS011;67962;47.310;9.642;2024-03-02T01:15:48;21.58;;;11.60;;
78648;SDS011;67962;47.310;9.642;2024-03-02T01:18:14;16.52;;;11.65;;
78648;SDS011;67962;47.310;9.642;2024-03-02T01:20:40;16.25;;;10.32;;
78648;SDS011;67962;47.310;9.642;2024-03-02T01:23:06;14.32;;;10.15;;
78648;SDS011;67962;47.310;9.642;2024-03-02T01:25:32;16.95;;;11.18;;
78648;SDS011;67962;47.310;9.642;2024-03-02T01:27:57;15.70;;;10.30;;
78648;SDS011;67962;47.310;9.642;2024-03-02T01:30:23;14.80;;;10.57;;
78648;SDS011;67962;47.310;9.642;2024-03-02T01:32:49;14.25;;;9.98;;
78648;SDS011;67962;47.310;9.642;2024-03-02T01:35:14;17.35;;;10.23;;
78648;SDS011;67962;47.310;9.642;2024-03-02T01:37:40;14.88;;;9.73;;
78648;SDS011;67962;47.310;9.642;2024-03-02T01:40:06;15.38;;;10.27;;
78648;SDS011;67962;47.310;9.642;2024-03-02T01:42:35;17.80;;;11.13;;
78648;SDS011;67962;47.310;9.642;2024-03-02T01:45:01;20.65;;;11.18;;
78648;SDS011;67962;47.310;9.642;2024-03-02T01:47:28;22.70;;;13.15;;
78648;SDS011;67962;47.310;9.642;2024-03-02T01:49:54;18.70;;;10.60;;
78648;SDS011;67962;47.310;9.642;2024-03-02T01:52:20;15.20;;;10.48;;
78648;SDS011;67962;47.310;9.642;2024-03-02T01:54:45;19.52;;;10.95;;
78648;SDS011;67962;47.310;9.642;2024-03-02T01:57:11;21.85;;;11.10;;
78648;SDS011;67962;47.310;9.642;2024-03-02T01:59:37;15.48;;;10.18;;
78648;SDS011;67962;47.310;9.642;2024-03-02T02:02:02;19.70;;;11.50;;
78648;SDS011;67962;47.310;9.642;2024-03-02T02:04:28;19.08;;;11.52;;
78648;SDS011;67962;47.310;9.642;2024-03-02T02:06:54;20.75;;;11.45;;
78648;SDS011;67962;47.310;9.642;2024-03-02T02:09:19;18.85;;;10.63;;
78648;SDS011;67962;47.310;9.642;2024-03-02T02:11:45;16.45;;;9.65;;
78648;SDS011;67962;47.310;9.642;2024-03-02T02:14:11;21.90;;;11.95;;
78648;SDS011;67962;47.310;9.642;2024-03-02T02:16:36;18.52;;;10.30;;
78648;SDS011;67962;47.310;9.642;2024-03-02T02:19:02;20.45;;;11.18;;
78648;SDS011;67962;47.310;9.642;2024-03-02T02:21:28;20.38;;;10.65;;
78648;SDS011;67962;47.310;9.642;2024-03-02T02:23:53;20.40;;;11.68;;
78648;SDS011;67962;47.310;9.642;2024-03-02T02:26:19;21.10;;;11.98;;
78648;SDS011;67962;47.310;9.642;2024-03-02T02:28:45;16.00;;;9.98;;
78648;SDS011;67962;47.310;9.642;2024-03-02T02:31:13;16.33;;;10.95;;
78648;SDS011;67962;47.310;9.642;2024-03-02T02:33:39;15.00;;;10.02;;
78648;SDS011;67962;47.310;9.642;2024-03-02T02:36:05;14.80;;;9.52;;
78648;SDS011;67962;47.310;9.642;2024-03-02T02:38:32;14.43;;;10.15;;
78648;SDS011;67962;47.310;9.642;2024-03-02T02:41:00;11.63;;;8.30;;
78648;SDS011;67962;47.310;9.642;2024-03-02T02:43:26;14.90;;;8.65;;
78648;SDS011;67962;47.310;9.642;2024-03-02T02:45:51;12.18;;;8.38;;
78648;SDS011;67962;47.310;9.642;2024-03-02T02:48:17;14.15;;;8.90;;
78648;SDS011;67962;47.310;9.642;2024-03-02T02:50:42;10.57;;;7.93;;
78648;SDS011;67962;47.310;9.642;2024-03-02T02:53:08;13.48;;;8.20;;
78648;SDS011;67962;47.310;9.642;2024-03-02T02:55:34;10.80;;;7.75;;
78648;SDS011;67962;47.310;9.642;2024-03-02T02:58:05;13.75;;;8.57;;
78648;SDS011;67962;47.310;9.642;2024-03-02T03:00:31;13.35;;;8.13;;
78648;SDS011;67962;47.310;9.642;2024-03-02T03:02:57;10.35;;;6.97;;
78648;SDS011;67962;47.310;9.642;2024-03-02T03:05:23;9.85;;;7.05;;
78648;SDS011;67962;47.310;9.642;2024-03-02T03:07:49;11.10;;;7.15;;
78648;SDS011;67962;47.310;9.642;2024-03-02T03:10:15;11.25;;;7.63;;
78648;SDS011;67962;47.310;9.642;2024-03-02T03:12:42;12.43;;;7.65;;
78648;SDS011;67962;47.310;9.642;2024-03-02T03:15:08;11.43;;;8.02;;
78648;SDS011;67962;47.310;9.642;2024-03-02T03:17:35;16.13;;;8.27;;
78648;SDS011;67962;47.310;9.642;2024-03-02T03:20:02;11.38;;;6.80;;
78648;SDS011;67962;47.310;9.642;2024-03-02T03:22:29;12.25;;;6.82;;
78648;SDS011;67962;47.310;9.642;2024-03-02T03:24:58;11.50;;;6.85;;
78648;SDS011;67962;47.310;9.642;2024-03-02T03:27:23;12.95;;;6.85;;
78648;SDS011;67962;47.310;9.642;2024-03-02T03:29:49;11.40;;;7.35;;
78648;SDS011;67962;47.310;9.642;2024-03-02T03:32:14;10.35;;;7.28;;
78648;SDS011;67962;47.310;9.642;2024-03-02T03:34:41;9.32;;;6.90;;
78648;SDS011;67962;47.310;9.642;2024-03-02T03:37:07;10.43;;;7.00;;
78648;SDS011;67962;47.310;9.642;2024-03-02T03:39:33;11.57;;;7.32;;
78648;SDS011;67962;47.310;9.642;2024-03-02T03:42:00;11.43;;;7.20;;
78648;SDS011;67962;47.310;9.642;2024-03-02T03:44:26;8.93;;;6.32;;
78648;SDS011;67962;47.310;9.642;2024-03-02T03:46:52;8.68;;;6.18;;
78648;SDS011;67962;47.310;9.642;2024-03-02T03:49:17;8.88;;;6.07;;
78648;SDS011;67962;47.310;9.642;2024-03-02T03:51:43;10.45;;;6.95;;
78648;SDS011;67962;47.310;9.642;2024-03-02T03:54:09;9.65;;;6.57;;
78648;SDS011;67962;47.310;9.642;2024-03-02T03:56:36;9.43;;;6.15;;
78648;SDS011;67962;47.310;9.642;2024-03-02T03:59:02;9.15;;;6.50;;
78648;SDS011;67962;47.310;9.642;2024-03-02T04:01:28;8.48;;;6.13;;
78648;SDS011;67962;47.310;9.642;2024-03-02T04:03:53;8.65;;;6.22;;
78648;SDS011;67962;47.310;9.642;2024-03-02T04:06:19;13.48;;;7.00;;
78648;SDS011;67962;47.310;9.642;2024-03-02T04:08:45;10.93;;;6.53;;
78648;SDS011;67962;47.310;9.642;2024-03-02T04:11:11;10.68;;;6.97;;
78648;SDS011;67962;47.310;9.642;2024-03-02T04:13:36;9.40;;;6.32;;
78648;SDS011;67962;47.310;9.642;2024-03-02T04:16:02;10.32;;;6.70;;
78648;SDS011;67962;47.310;9.642;2024-03-02T04:18:30;10.15;;;6.72;;
78648;SDS011;67962;47.310;9.642;2024-03-02T04:20:57;8.65;;;5.80;;
78648;SDS011;67962;47.310;9.642;2024-03-02T04:23:24;8.60;;;5.50;;
78648;SDS011;67962;47.310;9.642;2024-03-02T04:25:52;7.53;;;5.20;;
78648;SDS011;67962;47.310;9.642;2024-03-02T04:28:18;8.95;;;5.28;;
78648;SDS011;67962;47.310;9.642;2024-03-02T04:30:43;10.13;;;5.80;;
78648;SDS011;67962;47.310;9.642;2024-03-02T04:33:09;9.18;;;5.00;;
78648;SDS011;67962;47.310;9.642;2024-03-02T04:35:36;9.90;;;5.07;;
78648;SDS011;67962;47.310;9.642;2024-03-02T04:38:02;6.53;;;4.10;;
78648;SDS011;67962;47.310;9.642;2024-03-02T04:40:28;6.78;;;4.22;;
78648;SDS011;67962;47.310;9.642;2024-03-02T04:42:53;10.52;;;4.60;;
78648;SDS011;67962;47.310;9.642;2024-03-02T04:45:19;5.85;;;4.05;;
78648;SDS011;67962;47.310;9.642;2024-03-02T04:47:45;7.20;;;4.22;;
78648;SDS011;67962;47.310;9.642;2024-03-02T04:50:11;7.88;;;4.90;;
78648;SDS011;67962;47.310;9.642;2024-03-02T04:52:36;8.57;;;4.15;;
78648;SDS011;67962;47.310;9.642;2024-03-02T04:55:02;5.85;;;3.67;;
78648;SDS011;67962;47.310;9.642;2024-03-02T04:57:35;6.13;;;4.30;;
78648;SDS011;67962;47.310;9.642;2024-03-02T05:00:00;7.85;;;4.38;;
78648;SDS011;67962;47.310;9.642;2024-03-02T05:02:26;6.05;;;4.32;;
78648;SDS011;67962;47.310;9.642;2024-03-02T05:04:52;7.10;;;4.55;;
78648;SDS011;67962;47.310;9.642;2024-03-02T05:07:17;5.47;;;4.10;;
78648;SDS011;67962;47.310;9.642;2024-03-02T05:09:43;5.70;;;3.67;;
78648;SDS011;67962;47.310;9.642;2024-03-02T05:12:10;10.55;;;4.57;;
78648;SDS011;67962;47.310;9.642;2024-03-02T05:14:36;5.72;;;3.58;;
78648;SDS011;67962;47.310;9.642;2024-03-02T05:17:03;10.80;;;4.10;;
78648;SDS011;67962;47.310;9.642;2024-03-02T05:19:29;5.00;;;3.42;;
78648;SDS011;67962;47.310;9.642;2024-03-02T05:21:54;6.20;;;3.80;;
78648;SDS011;67962;47.310;9.642;2024-03-02T05:24:20;7.05;;;4.43;;
78648;SDS011;67962;47.310;9.642;2024-03-02T05:26:46;7.57;;;4.40;;
78648;SDS011;67962;47.310;9.642;2024-03-02T05:29:11;6.93;;;4.88;;
78648;SDS011;67962;47.310;9.642;2024-03-02T05:31:37;6.25;;;4.20;;
78648;SDS011;67962;47.310;9.642;2024-03-02T05:34:03;10.93;;;5.55;;
78648;SDS011;67962;47.310;9.642;2024-03-02T05:36:30;9.32;;;5.93;;
78648;SDS011;67962;47.310;9.642;2024-03-02T05:38:56;7.93;;;5.32;;
78648;SDS011;67962;47.310;9.642;2024-03-02T05:41:22;7.60;;;5.10;;
78648;SDS011;67962;47.310;9.642;2024-03-02T05:43:48;7.35;;;4.93;;
78648;SDS011;67962;47.310;9.642;2024-03-02T05:46:14;5.90;;;4.20;;
78648;SDS011;67962;47.310;9.642;2024-03-02T05:48:40;7.95;;;4.30;;
78648;SDS011;67962;47.310;9.642;2024-03-02T05:51:05;8.57;;;4.47;;
78648;SDS011;67962;47.310;9.642;2024-03-02T05:53:31;6.95;;;3.95;;
78648;SDS011;67962;47.310;9.642;2024-03-02T05:55:57;10.05;;;4.97;;
78648;SDS011;67962;47.310;9.642;2024-03-02T05:58:22;8.50;;;4.80;;
78648;SDS011;67962;47.310;9.642;2024-03-02T06:01:06;7.35;;;4.65;;
78648;SDS011;67962;47.310;9.642;2024-03-02T06:03:32;7.05;;;4.50;;
78648;SDS011;67962;47.310;9.642;2024-03-02T06:05:58;10.27;;;4.40;;
78648;SDS011;67962;47.310;9.642;2024-03-02T06:08:24;6.80;;;4.18;;
78648;SDS011;67962;47.310;9.642;2024-03-02T06:10:50;9.05;;;4.47;;
78648;SDS011;67962;47.310;9.642;2024-03-02T06:13:15;7.07;;;4.38;;
78648;SDS011;67962;47.310;9.642;2024-03-02T06:15:41;6.38;;;4.10;;
78648;SDS011;67962;47.310;9.642;2024-03-02T06:18:07;9.13;;;4.10;;
78648;SDS011;67962;47.310;9.642;2024-03-02T06:20:33;6.50;;;4.05;;
78648;SDS011;67962;47.310;9.642;2024-03-02T06:22:59;9.18;;;4.05;;
78648;SDS011;67962;47.310;9.642;2024-03-02T06:25:24;6.90;;;4.50;;
78648;SDS011;67962;47.310;9.642;2024-03-02T06:27:50;7.20;;;5.03;;
78648;SDS011;67962;47.310;9.642;2024-03-02T06:30:16;11.77;;;5.50;;
78648;SDS011;67962;47.310;9.642;2024-03-02T06:32:41;6.38;;;4.05;;
78648;SDS011;67962;47.310;9.642;2024-03-02T06:35:07;10.15;;;5.00;;
78648;SDS011;67962;47.310;9.642;2024-03-02T06:37:35;8.80;;;4.70;;
78648;SDS011;67962;47.310;9.642;2024-03-02T06:40:07;7.43;;;4.40;;
78648;SDS011;67962;47.310;9.642;2024-03-02T06:42:34;7.50;;;4.50;;
78648;SDS011;67962;47.310;9.642;2024-03-02T06:45:00;7.63;;;4.40;;
78648;SDS011;67962;47.310;9.642;2024-03-02T06:47:26;5.47;;;3.85;;
78648;SDS011;67962;47.310;9.642;2024-03-02T06:49:52;7.03;;;4.50;;
78648;SDS011;67962;47.310;9.642;2024-03-02T06:52:18;6.20;;;4.20;;
78648;SDS011;67962;47.310;9.642;2024-03-02T06:54:45;6.82;;;3.90;;
78648;SDS011;67962;47.310;9.642;2024-03-02T06:57:11;6.30;;;3.90;;
78648;SDS011;67962;47.310;9.642;2024-03-02T06:59:37;5.75;;;3.58;;
78648;SDS011;67962;47.310;9.642;2024-03-02T07:02:03;4.50;;;3.58;;
78648;SDS011;67962;47.310;9.642;2024-03-02T07:04:28;4.93;;;3.50;;
78648;SDS011;67962;47.310;9.642;2024-03-02T07:06:54;4.70;;;3.35;;
78648;SDS011;67962;47.310;9.642;2024-03-02T07:09:20;5.20;;;3.25;;
78648;SDS011;67962;47.310;9.642;2024-03-02T07:11:48;4.65;;;3.22;;
78648;SDS011;67962;47.310;9.642;2024-03-02T07:14:14;4.85;;;2.78;;
78648;SDS011;67962;47.310;9.642;2024-03-02T07:16:40;4.93;;;2.78;;
78648;SDS011;67962;47.310;9.642;2024-03-02T07:19:08;4.65;;;2.53;;
78648;SDS011;67962;47.310;9.642;2024-03-02T07:21:34;6.07;;;2.67;;
78648;SDS011;67962;47.310;9.642;2024-03-02T07:23:59;4.68;;;2.88;;
78648;SDS011;67962;47.310;9.642;2024-03-02T07:26:28;7.93;;;3.22;;
78648;SDS011;67962;47.310;9.642;2024-03-02T07:28:56;4.05;;;2.70;;
78648;SDS011;67962;47.310;9.642;2024-03-02T07:31:22;3.83;;;2.90;;
78648;SDS011;67962;47.310;9.642;2024-03-02T07:33:47;8.38;;;3.75;;
78648;SDS011;67962;47.310;9.642;2024-03-02T07:36:13;6.55;;;4.07;;
78648;SDS011;67962;47.310;9.642;2024-03-02T07:38:39;6.63;;;4.53;;
78648;SDS011;67962;47.310;9.642;2024-03-02T07:41:05;5.93;;;3.90;;
78648;SDS011;67962;47.310;9.642;2024-03-02T07:43:32;6.25;;;4.30;;
78648;SDS011;67962;47.310;9.642;2024-03-02T07:45:58;5.93;;;4.28;;
78648;SDS011;67962;47.310;9.642;2024-03-02T07:48:24;9.38;;;4.13;;
78648;SDS011;67962;47.310;9.642;2024-03-02T07:50:50;7.10;;;4.55;;
78648;SDS011;67962;47.310;9.642;2024-03-02T07:53:16;8.85;;;4.72;;
78648;SDS011;67962;47.310;9.642;2024-03-02T07:55:42;9.02;;;4.45;;
78648;SDS011;67962;47.310;9.642;2024-03-02T07:58:08;8.88;;;5.30;;
78648;SDS011;67962;47.310;9.642;2024-03-02T08:00:34;6.40;;;3.65;;
78648;SDS011;67962;47.310;9.642;2024-03-02T08:03:00;4.78;;;2.75;;
78648;SDS011;67962;47.310;9.642;2024-03-02T08:05:26;3.08;;;2.35;;
78648;SDS011;67962;47.310;9.642;2024-03-02T08:07:52;2.40;;;2.03;;
78648;SDS011;67962;47.310;9.642;2024-03-02T08:10:18;3.00;;;1.65;;
78648;SDS011;67962;47.310;9.642;2024-03-02T08:12:44;2.85;;;1.30;;
78648;SDS011;67962;47.310;9.642;2024-03-02T08:15:10;3.50;;;2.25;;
78648;SDS011;67962;47.310;9.642;2024-03-02T08:17:37;6.88;;;1.42;;
78648;SDS011;67962;47.310;9.642;2024-03-02T08:20:06;3.00;;;1.65;;
78648;SDS011;67962;47.310;9.642;2024-03-02T08:22:33;3.42;;;2.20;;
78648;SDS011;67962;47.310;9.642;2024-03-02T08:24:58;3.47;;;1.92;;
78648;SDS011;67962;47.310;9.642;2024-03-02T08:27:24;3.40;;;2.08;;
78648;SDS011;67962;47.310;9.642;2024-03-02T08:29:50;3.22;;;2.15;;
78648;SDS011;67962;47.310;9.642;2024-03-02T08:32:15;3.75;;;1.98;;
78648;SDS011;67962;47.310;9.642;2024-03-02T08:34:42;4.35;;;2.00;;
78648;SDS011;67962;47.310;9.642;2024-03-02T08:37:08;3.88;;;2.47;;
78648;SDS011;67962;47.310;9.642;2024-03-02T08:39:33;4.28;;;2.55;;
78648;SDS011;67962;47.310;9.642;2024-03-02T08:41:59;3.83;;;2.13;;
78648;SDS011;67962;47.310;9.642;2024-03-02T08:44:25;3.28;;;2.33;;
78648;SDS011;67962;47.310;9.642;2024-03-02T08:46:51;4.18;;;2.40;;
78648;SDS011;67962;47.310;9.642;2024-03-02T08:49:16;5.25;;;2.50;;
78648;SDS011;67962;47.310;9.642;2024-03-02T08:51:42;4.90;;;2.75;;
78648;SDS011;67962;47.310;9.642;2024-03-02T08:54:08;4.53;;;3.00;;
78648;SDS011;67962;47.310;9.642;2024-03-02T08:56:33;5.07;;;2.97;;
78648;SDS011;67962;47.310;9.642;2024-03-02T08:59:00;5.05;;;3.05;;
78648;SDS011;67962;47.310;9.642;2024-03-02T09:01:26;7.28;;;3.45;;
78648;SDS011;67962;47.310;9.642;2024-03-02T09:03:52;5.05;;;3.15;;
78648;SDS011;67962;47.310;9.642;2024-03-02T09:06:18;5.07;;;3.00;;
78648;SDS011;67962;47.310;9.642;2024-03-02T09:08:45;6.10;;;3.10;;
78648;SDS011;67962;47.310;9.642;2024-03-02T09:11:11;5.05;;;3.20;;
78648;SDS011;67962;47.310;9.642;2024-03-02T09:13:37;7.38;;;3.50;;
78648;SDS011;67962;47.310;9.642;2024-03-02T09:16:03;6.75;;;2.35;;
78648;SDS011;67962;47.310;9.642;2024-03-02T09:18:30;3.33;;;2.10;;
78648;SDS011;67962;47.310;9.642;2024-03-02T09:20:56;3.78;;;2.28;;
78648;SDS011;67962;47.310;9.642;2024-03-02T09:23:21;4.07;;;1.90;;
78648;SDS011;67962;47.310;9.642;2024-03-02T09:25:47;3.38;;;1.98;;
78648;SDS011;67962;47.310;9.642;2024-03-02T09:28:15;2.53;;;1.85;;
78648;SDS011;67962;47.310;9.642;2024-03-02T09:30:41;4.43;;;1.27;;
78648;SDS011;67962;47.310;9.642;2024-03-02T09:33:06;1.88;;;1.60;;
78648;SDS011;67962;47.310;9.642;2024-03-02T09:35:32;2.35;;;1.42;;
78648;SDS011;67962;47.310;9.642;2024-03-02T09:37:57;3.85;;;1.52;;
78648;SDS011;67962;47.310;9.642;2024-03-02T09:40:23;2.42;;;1.45;;
78648;SDS011;67962;47.310;9.642;2024-03-02T09:42:49;2.33;;;1.67;;
78648;SDS011;67962;47.310;9.642;2024-03-02T09:45:24;2.17;;;1.40;;
78648;SDS011;67962;47.310;9.642;2024-03-02T09:47:50;2.75;;;1.52;;
78648;SDS011;67962;47.310;9.642;2024-03-02T09:50:16;2.10;;;1.50;;
78648;SDS011;67962;47.310;9.642;2024-03-02T09:52:42;1.80;;;1.45;;
78648;SDS011;67962;47.310;9.642;2024-03-02T09:55:08;6.13;;;1.10;;
78648;SDS011;67962;47.310;9.642;2024-03-02T09:57:34;1.45;;;1.17;;
78648;SDS011;67962;47.310;9.642;2024-03-02T10:00:00;1.73;;;1.10;;
78648;SDS011;67962;47.310;9.642;2024-03-02T10:02:26;2.00;;;1.48;;
78648;SDS011;67962;47.310;9.642;2024-03-02T10:04:51;2.13;;;1.30;;
78648;SDS011;67962;47.310;9.642;2024-03-02T10:07:18;1.90;;;1.30;;
78648;SDS011;67962;47.310;9.642;2024-03-02T10:09:45;1.60;;;1.38;;
78648;SDS011;67962;47.310;9.642;2024-03-02T10:12:12;4.75;;;1.10;;
78648;SDS011;67962;47.310;9.642;2024-03-02T10:14:39;2.08;;;1.10;;
78648;SDS011;67962;47.310;9.642;2024-03-02T10:17:06;2.75;;;1.10;;
78648;SDS011;67962;47.310;9.642;2024-03-02T10:19:33;1.00;;;0.90;;
78648;SDS011;67962;47.310;9.642;2024-03-02T10:22:00;3.47;;;1.17;;
78648;SDS011;67962;47.310;9.642;2024-03-02T10:24:27;6.10;;;1.35;;
78648;SDS011;67962;47.310;9.642;2024-03-02T10:27:01;1.90;;;1.25;;
78648;SDS011;67962;47.310;9.642;2024-03-02T10:29:29;1.75;;;1.15;;
78648;SDS011;67962;47.310;9.642;2024-03-02T10:31:55;2.15;;;1.10;;
78648;SDS011;67962;47.310;9.642;2024-03-02T10:34:21;2.08;;;0.85;;
78648;SDS011;67962;47.310;9.642;2024-03-02T10:36:47;1.67;;;1.10;;
78648;SDS011;67962;47.310;9.642;2024-03-02T10:39:13;1.55;;;1.10;;
78648;SDS011;67962;47.310;9.642;2024-03-02T10:41:39;2.55;;;1.38;;
78648;SDS011;67962;47.310;9.642;2024-03-02T10:44:06;1.30;;;1.13;;
78648;SDS011;67962;47.310;9.642;2024-03-02T10:46:34;2.30;;;0.90;;
78648;SDS011;67962;47.310;9.642;2024-03-02T10:49:01;2.25;;;1.20;;
78648;SDS011;67962;47.310;9.642;2024-03-02T10:51:29;2.78;;;1.35;;
78648;SDS011;67962;47.310;9.642;2024-03-02T10:53:59;2.30;;;0.90;;
78648;SDS011;67962;47.310;9.642;2024-03-02T10:56:29;1.65;;;1.10;;
78648;SDS011;67962;47.310;9.642;2024-03-02T11:01:55;6.05;;;1.30;;
78648;SDS011;67962;47.310;9.642;2024-03-02T11:04:29;2.42;;;1.30;;
78648;SDS011;67962;47.310;9.642;2024-03-02T11:06:59;2.47;;;1.23;;
78648;SDS011;67962;47.310;9.642;2024-03-02T11:09:28;1.17;;;0.82;;
78648;SDS011;67962;47.310;9.642;2024-03-02T11:12:00;2.88;;;0.90;;
78648;SDS011;67962;47.310;9.642;2024-03-02T11:14:40;0.95;;;0.60;;
78648;SDS011;67962;47.310;9.642;2024-03-02T11:17:13;1.95;;;0.98;;
78648;SDS011;67962;47.310;9.642;2024-03-02T11:19:43;3.15;;;1.50;;
78648;SDS011;67962;47.310;9.642;2024-03-02T11:22:10;3.15;;;1.40;;
78648;SDS011;67962;47.310;9.642;2024-03-02T11:24:37;3.78;;;1.60;;
78648;SDS011;67962;47.310;9.642;2024-03-02T11:27:03;1.85;;;1.08;;
78648;SDS011;67962;47.310;9.642;2024-03-02T11:32:22;3.83;;;2.30;;
78648;SDS011;67962;47.310;9.642;2024-03-02T11:34:50;6.05;;;1.83;;
78648;SDS011;67962;47.310;9.642;2024-03-02T11:37:17;3.63;;;1.20;;
78648;SDS011;67962;47.310;9.642;2024-03-02T11:39:44;1.25;;;0.80;;
78648;SDS011;67962;47.310;9.642;2024-03-02T11:42:10;3.20;;;0.80;;
78648;SDS011;67962;47.310;9.642;2024-03-02T11:44:39;2.45;;;0.70;;
78648;SDS011;67962;47.310;9.642;2024-03-02T11:47:08;3.53;;;0.90;;
78648;SDS011;67962;47.310;9.642;2024-03-02T11:49:45;1.48;;;0.80;;
78648;SDS011;67962;47.310;9.642;2024-03-02T11:52:15;4.75;;;0.80;;
78648;SDS011;67962;47.310;9.642;2024-03-02T11:54:43;1.80;;;0.85;;
78648;SDS011;67962;47.310;9.642;2024-03-02T11:57:20;0.75;;;0.57;;
78648;SDS011;67962;47.310;9.642;2024-03-02T11:59:49;1.10;;;0.60;;
78648;SDS011;67962;47.310;9.642;2024-03-02T12:02:15;1.38;;;0.70;;
78648;SDS011;67962;47.310;9.642;2024-03-02T12:04:43;1.15;;;0.57;;
78648;SDS011;67962;47.310;9.642;2024-03-02T12:07:10;1.10;;;0.35;;
78648;SDS011;67962;47.310;9.642;2024-03-02T12:09:36;1.48;;;0.60;;
78648;SDS011;67962;47.310;9.642;2024-03-02T12:12:03;0.55;;;0.40;;
78648;SDS011;67962;47.310;9.642;2024-03-02T12:14:33;0.50;;;0.50;;
78648;SDS011;67962;47.310;9.642;2024-03-02T12:16:59;1.02;;;0.40;;
78648;SDS011;67962;47.310;9.642;2024-03-02T12:19:26;0.57;;;0.40;;
78648;SDS011;67962;47.310;9.642;2024-03-02T12:21:52;1.50;;;0.40;;
78648;SDS011;67962;47.310;9.642;2024-03-02T12:24:19;0.45;;;0.32;;
78648;SDS011;67962;47.310;9.642;2024-03-02T12:26:46;0.77;;;0.30;;
78648;SDS011;67962;47.310;9.642;2024-03-02T12:29:13;3.58;;;0.40;;
78648;SDS011;67962;47.310;9.642;2024-03-02T12:31:40;1.10;;;0.40;;
78648;SDS011;67962;47.310;9.642;2024-03-02T12:34:07;0.85;;;0.50;;
78648;SDS011;67962;47.310;9.642;2024-03-02T12:36:39;0.65;;;0.38;;
78648;SDS011;67962;47.310;9.642;2024-03-02T12:39:10;0.70;;;0.40;;
78648;SDS011;67962;47.310;9.642;2024-03-02T12:41:38;1.98;;;0.40;;
78648;SDS011;67962;47.310;9.642;2024-03-02T12:44:05;1.00;;;0.60;;
78648;SDS011;67962;47.310;9.642;2024-03-02T12:46:31;1.20;;;0.60;;
78648;SDS011;67962;47.310;9.642;2024-03-02T12:48:58;2.25;;;1.30;;
78648;SDS011;67962;47.310;9.642;2024-03-02T12:51:24;1.55;;;0.70;;
78648;SDS011;67962;47.310;9.642;2024-03-02T12:53:57;1.63;;;0.43;;
78648;SDS011;67962;47.310;9.642;2024-03-02T12:56:23;0.70;;;0.40;;
78648;SDS011;67962;47.310;9.642;2024-03-02T12:58:59;0.82;;;0.40;;
78648;SDS011;67962;47.310;9.642;2024-03-02T13:01:25;1.83;;;0.50;;
78648;SDS011;67962;47.310;9.642;2024-03-02T13:03:52;1.83;;;0.60;;
78648;SDS011;67962;47.310;9.642;2024-03-02T13:06:18;1.00;;;0.55;;
78648;SDS011;67962;47.310;9.642;2024-03-02T13:08:45;0.57;;;0.50;;
78648;SDS011;67962;47.310;9.642;2024-03-02T13:11:12;2.42;;;0.77;;
78648;SDS011;67962;47.310;9.642;2024-03-02T13:13:41;0.98;;;0.70;;
78648;SDS011;67962;47.310;9.642;2024-03-02T13:16:10;0.98;;;0.63;;
78648;SDS011;67962;47.310;9.642;2024-03-02T13:18:36;2.38;;;0.90;;
78648;SDS011;67962;47.310;9.642;2024-03-02T13:21:03;0.80;;;0.55;;
78648;SDS011;67962;47.310;9.642;2024-03-02T13:23:29;1.85;;;0.50;;
78648;SDS011;67962;47.310;9.642;2024-03-02T13:25:58;1.65;;;0.50;;
78648;SDS011;67962;47.310;9.642;2024-03-02T13:28:24;2.75;;;0.60;;
78648;SDS011;67962;47.310;9.642;2024-03-02T13:30:50;2.80;;;1.02;;
78648;SDS011;67962;47.310;9.642;2024-03-02T13:33:16;1.23;;;0.60;;
78648;SDS011;67962;47.310;9.642;2024-03-02T13:35:47;2.25;;;0.45;;
78648;SDS011;67962;47.310;9.642;2024-03-02T13:38:19;2.03;;;0.70;;
78648;SDS011;67962;47.310;9.642;2024-03-02T13:40:45;0.70;;;0.57;;
78648;SDS011;67962;47.310;9.642;2024-03-02T13:43:17;1.17;;;0.60;;
78648;SDS011;67962;47.310;9.642;2024-03-02T13:45:47;0.80;;;0.40;;
78648;SDS011;67962;47.310;9.642;2024-03-02T13:48:13;1.33;;;0.40;;
78648;SDS011;67962;47.310;9.642;2024-03-02T13:50:39;1.00;;;0.60;;
78648;SDS011;67962;47.310;9.642;2024-03-02T13:53:05;1.30;;;0.70;;
78648;SDS011;67962;47.310;9.642;2024-03-02T13:55:32;1.05;;;0.43;;
78648;SDS011;67962;47.310;9.642;2024-03-02T13:57:58;1.60;;;0.60;;
78648;SDS011;67962;47.310;9.642;2024-03-02T14:00:24;0.93;;;0.50;;
78648;SDS011;67962;47.310;9.642;2024-03-02T14:02:50;1.23;;;0.70;;
78648;SDS011;67962;47.310;9.642;2024-03-02T14:05:16;1.75;;;0.75;;
78648;SDS011;67962;47.310;9.642;2024-03-02T14:07:42;1.08;;;0.60;;
78648;SDS011;67962;47.310;9.642;2024-03-02T14:10:09;1.15;;;0.70;;
78648;SDS011;67962;47.310;9.642;2024-03-02T14:12:35;3.88;;;0.82;;
78648;SDS011;67962;47.310;9.642;2024-03-02T14:15:01;1.45;;;0.73;;
78648;SDS011;67962;47.310;9.642;2024-03-02T14:17:27;1.00;;;0.77;;
78648;SDS011;67962;47.310;9.642;2024-03-02T14:19:54;1.00;;;0.57;;
78648;SDS011;67962;47.310;9.642;2024-03-02T14:22:20;1.10;;;0.60;;
78648;SDS011;67962;47.310;9.642;2024-03-02T14:24:46;3.03;;;0.60;;
78648;SDS011;67962;47.310;9.642;2024-03-02T14:27:12;2.28;;;0.70;;
78648;SDS011;67962;47.310;9.642;2024-03-02T14:29:39;2.05;;;0.60;;
78648;SDS011;67962;47.310;9.642;2024-03-02T14:32:05;3.15;;;0.80;;
78648;SDS011;67962;47.310;9.642;2024-03-02T14:34:31;1.48;;;0.80;;
78648;SDS011;67962;47.310;9.642;2024-03-02T14:36:58;2.20;;;0.80;;
78648;SDS011;67962;47.310;9.642;2024-03-02T14:39:24;1.00;;;0.50;;
78648;SDS011;67962;47.310;9.642;2024-03-02T14:41:50;0.63;;;0.50;;
78648;SDS011;67962;47.310;9.642;2024-03-02T14:44:16;0.50;;;0.47;;
78648;SDS011;67962;47.310;9.642;2024-03-02T14:46:42;1.17;;;0.60;;
78648;SDS011;67962;47.310;9.642;2024-03-02T14:49:08;1.13;;;0.77;;